createdAt,value
2023-04-25T00:00:24.687Z,4.27
2023-04-25T00:02:51.999Z,4.88
2023-04-25T00:05:20.641Z,7.10
2023-04-25T00:07:47.941Z,5.90
2023-04-25T00:10:15.277Z,4.90
2023-04-25T00:12:42.771Z,5.53
2023-04-25T00:15:10.715Z,5.90
2023-04-25T00:17:39.463Z,7.45
2023-04-25T00:20:09.945Z,4.93
2023-04-25T00:22:38.485Z,5.38
2023-04-25T00:25:07.266Z,5.10
2023-04-25T00:27:34.639Z,4.88
2023-04-25T00:30:01.881Z,5.05
2023-04-25T00:32:29.288Z,5.00
2023-04-25T00:34:59.069Z,5.05
2023-04-25T00:37:26.443Z,5.57
2023-04-25T00:39:54.742Z,5.32
2023-04-25T00:42:22.104Z,5.90
2023-04-25T00:44:49.348Z,4.40
2023-04-25T00:47:16.760Z,7.50
2023-04-25T00:49:44.517Z,4.47
2023-04-25T00:52:13.135Z,5.35
2023-04-25T00:54:40.359Z,5.07
2023-04-25T00:57:07.678Z,4.20
2023-04-25T00:59:34.905Z,5.05
2023-04-25T01:02:02.243Z,5.60
2023-04-25T01:04:29.929Z,5.45
2023-04-25T01:06:57.801Z,4.78
2023-04-25T01:09:25.025Z,5.28
2023-04-25T01:11:52.499Z,4.95
2023-04-25T01:14:19.986Z,5.43
2023-04-25T01:16:47.489Z,4.88
2023-04-25T01:19:14.742Z,5.60
2023-04-25T01:21:42.016Z,5.50
2023-04-25T01:24:09.221Z,6.22
2023-04-25T01:26:36.523Z,5.07
2023-04-25T01:29:05.585Z,7.00
2023-04-25T01:31:33.322Z,5.18
2023-04-25T01:34:01.053Z,5.70
2023-04-25T01:36:30.083Z,6.65
2023-04-25T01:38:57.394Z,8.13
2023-04-25T01:41:24.777Z,5.70
2023-04-25T01:43:52.280Z,8.55
2023-04-25T01:46:20.026Z,5.32
2023-04-25T01:48:47.516Z,6.18
2023-04-25T01:51:14.954Z,8.10
2023-04-25T01:53:42.302Z,6.25
2023-04-25T01:56:09.885Z,6.75
2023-04-25T01:58:37.518Z,5.88
2023-04-25T02:01:11.814Z,5.13
2023-04-25T02:03:47.646Z,7.07
2023-04-25T02:06:36.945Z,4.95
2023-04-25T02:09:04.377Z,4.95
2023-04-25T02:11:32.712Z,6.05
2023-04-25T02:14:35.398Z,5.25
2023-04-25T02:17:07.066Z,8.50
2023-04-25T02:19:34.501Z,5.20
2023-04-25T02:22:02.325Z,5.68
2023-04-25T02:24:29.829Z,5.82
2023-04-25T02:26:57.675Z,6.47
2023-04-25T02:29:25.016Z,5.10
2023-04-25T02:31:52.350Z,6.22
2023-04-25T02:34:19.816Z,7.15
2023-04-25T02:36:47.071Z,7.30
2023-04-25T02:39:18.643Z,5.90
2023-04-25T02:41:46.132Z,7.00
2023-04-25T02:44:13.382Z,6.50
2023-04-25T02:46:40.746Z,5.50
2023-04-25T02:49:08.077Z,6.43
2023-04-25T02:51:36.367Z,6.75
2023-04-25T02:54:03.999Z,5.37
2023-04-25T02:56:35.246Z,4.30
2023-04-25T02:59:02.802Z,7.03
2023-04-25T03:01:31.063Z,5.38
2023-04-25T03:03:58.482Z,7.95
2023-04-25T03:06:25.821Z,6.83
2023-04-25T03:08:53.402Z,9.20
2023-04-25T03:11:21.352Z,6.03
2023-04-25T03:13:49.213Z,7.00
2023-04-25T03:16:17.254Z,6.70
2023-04-25T03:18:44.706Z,5.93
2023-04-25T03:21:12.465Z,6.50
2023-04-25T03:23:39.758Z,7.90
2023-04-25T03:26:08.529Z,8.63
2023-04-25T03:28:35.916Z,7.85
2023-04-25T03:31:03.246Z,6.53
2023-04-25T03:33:31.027Z,6.38
2023-04-25T03:35:58.659Z,5.93
2023-04-25T03:38:28.972Z,5.70
2023-04-25T03:40:57.482Z,6.57
2023-04-25T03:43:45.000Z,6.80
2023-04-25T03:46:14.397Z,6.72
2023-04-25T03:48:42.994Z,7.72
2023-04-25T03:51:13.557Z,6.47
2023-04-25T03:53:44.063Z,7.75
2023-04-25T03:56:17.166Z,6.67
2023-04-25T03:58:46.928Z,6.20
2023-04-25T04:01:16.392Z,6.20
2023-04-25T04:03:43.922Z,5.95
2023-04-25T04:06:11.854Z,6.60
2023-04-25T04:08:45.183Z,7.07
2023-04-25T04:11:12.812Z,8.52
2023-04-25T04:13:40.341Z,6.28
2023-04-25T04:16:08.631Z,8.30
2023-04-25T04:18:36.909Z,6.25
2023-04-25T04:21:06.804Z,6.30
2023-04-25T04:23:39.504Z,7.97
2023-04-25T04:26:09.826Z,8.05
2023-04-25T04:28:57.604Z,7.72
2023-04-25T04:31:46.541Z,7.25
2023-04-25T04:34:13.835Z,6.83
2023-04-25T04:36:42.386Z,6.03
2023-04-25T04:39:10.314Z,5.05
2023-04-25T04:41:54.738Z,5.65
2023-04-25T04:44:40.449Z,6.32
2023-04-25T04:47:25.094Z,5.17
2023-04-25T04:50:05.213Z,5.30
2023-04-25T04:53:05.219Z,6.80
2023-04-25T04:55:49.097Z,5.35
2023-04-25T04:58:37.930Z,5.15
2023-04-25T05:01:31.468Z,6.80
2023-04-25T05:04:09.783Z,6.93
2023-04-25T05:06:55.617Z,5.57
2023-04-25T05:09:43.507Z,6.63
2023-04-25T05:12:10.834Z,5.90
2023-04-25T05:14:38.099Z,5.37
2023-04-25T05:17:32.486Z,7.95
2023-04-25T05:20:22.863Z,5.80
2023-04-25T05:23:16.681Z,7.00
2023-04-25T05:26:06.084Z,6.90
2023-04-25T05:28:39.519Z,7.90
2023-04-25T05:31:24.834Z,7.50
2023-04-25T05:33:59.351Z,6.35
2023-04-25T05:36:35.340Z,6.65
2023-04-25T05:39:04.482Z,5.72
2023-04-25T05:41:50.440Z,4.73
2023-04-25T05:44:47.539Z,5.53
2023-04-25T05:47:33.688Z,5.97
2023-04-25T05:50:09.784Z,8.55
2023-04-25T05:52:54.062Z,6.88
2023-04-25T05:55:43.048Z,6.40
2023-04-25T05:58:25.422Z,8.93
2023-04-25T06:00:55.322Z,5.10
2023-04-25T06:03:29.706Z,5.07
2023-04-25T06:06:01.464Z,6.55
2023-04-25T06:08:29.637Z,4.43
2023-04-25T06:10:59.581Z,5.95
2023-04-25T06:13:27.237Z,5.47
2023-04-25T06:15:56.636Z,5.90
2023-04-25T06:18:24.604Z,4.70
2023-04-25T06:20:52.029Z,5.57
2023-04-25T06:23:20.394Z,4.90
2023-04-25T06:26:00.251Z,5.83
2023-04-25T06:28:29.448Z,3.90
2023-04-25T06:30:56.830Z,5.22
2023-04-25T06:33:25.434Z,5.20
2023-04-25T06:35:54.143Z,4.85
2023-04-25T06:38:26.078Z,3.00
2023-04-25T06:40:56.409Z,3.50
2023-04-25T06:43:34.387Z,6.60
2023-04-25T06:46:25.731Z,5.32
2023-04-25T06:48:57.059Z,4.72
2023-04-25T06:51:25.531Z,6.33
2023-04-25T06:53:55.171Z,3.88
2023-04-25T06:56:30.880Z,4.00
2023-04-25T06:59:09.372Z,4.70
2023-04-25T07:01:39.518Z,4.28
2023-04-25T07:04:12.476Z,5.63
2023-04-25T07:06:48.238Z,6.00
2023-04-25T07:09:17.973Z,5.68
2023-04-25T07:11:48.298Z,6.00
2023-04-25T07:14:16.368Z,5.22
2023-04-25T07:16:43.856Z,5.10
2023-04-25T07:19:12.204Z,6.40
2023-04-25T07:21:41.359Z,4.25
2023-04-25T07:24:11.205Z,4.38
2023-04-25T07:26:45.306Z,4.38
2023-04-25T07:29:32.437Z,4.47
2023-04-25T07:32:04.407Z,5.13
2023-04-25T07:34:33.277Z,6.25
2023-04-25T07:37:34.978Z,5.03
2023-04-25T07:40:07.382Z,5.95
2023-04-25T07:42:40.752Z,4.53
2023-04-25T07:45:24.281Z,5.60
2023-04-25T07:48:06.198Z,5.20
2023-04-25T07:50:39.788Z,5.13
2023-04-25T07:53:08.244Z,5.40
2023-04-25T07:55:44.477Z,4.43
2023-04-25T07:58:22.631Z,5.70
2023-04-25T08:00:57.432Z,4.15
2023-04-25T08:03:48.287Z,5.35
2023-04-25T08:06:22.980Z,5.38
2023-04-25T08:09:00.254Z,7.50
2023-04-25T08:11:35.250Z,6.40
2023-04-25T08:14:03.840Z,5.17
2023-04-25T08:16:35.359Z,5.18
2023-04-25T08:19:09.794Z,4.55
2023-04-25T08:21:38.000Z,5.75
2023-04-25T08:24:22.167Z,4.55
2023-04-25T08:26:50.549Z,4.93
2023-04-25T08:29:20.539Z,4.72
2023-04-25T08:31:54.807Z,8.52
2023-04-25T08:34:23.653Z,4.55
2023-04-25T08:36:52.444Z,6.40
2023-04-25T08:39:46.804Z,4.93
2023-04-25T08:42:23.046Z,5.32
2023-04-25T08:44:52.958Z,5.20
2023-04-25T08:47:21.982Z,4.30
2023-04-25T08:49:53.322Z,4.25
2023-04-25T08:52:23.507Z,5.40
2023-04-25T08:54:51.721Z,6.60
2023-04-25T08:57:20.771Z,6.43
2023-04-25T08:59:50.146Z,4.10
2023-04-25T09:02:20.089Z,4.55
2023-04-25T09:08:01.953Z,4.78
2023-04-25T09:10:36.670Z,5.32
2023-04-25T09:13:35.092Z,6.13
2023-04-25T09:16:26.180Z,4.10
2023-04-25T09:19:38.973Z,5.80
2023-04-25T09:23:16.836Z,3.97
2023-04-25T09:25:57.862Z,4.07
2023-04-25T09:28:30.929Z,3.57
2023-04-25T09:31:02.308Z,3.67
2023-04-25T09:33:54.684Z,3.88
2023-04-25T09:36:52.837Z,4.38
2023-04-25T09:43:25.247Z,5.32
2023-04-25T09:45:56.788Z,4.95
2023-04-25T09:48:26.621Z,4.97
2023-04-25T09:51:09.694Z,6.63
2023-04-25T09:53:42.282Z,4.07
2023-04-25T09:56:23.423Z,4.28
2023-04-25T09:58:51.219Z,6.15
2023-04-25T10:01:18.683Z,6.67
2023-04-25T10:04:24.134Z,5.30
2023-04-25T10:07:02.715Z,5.05
2023-04-25T10:09:35.182Z,7.60
2023-04-25T10:12:04.331Z,3.63
2023-04-25T10:14:32.549Z,5.73
2023-04-25T10:17:00.862Z,4.25
2023-04-25T10:19:31.999Z,5.60
2023-04-25T10:22:10.511Z,4.07
2023-04-25T10:24:38.484Z,5.13
2023-04-25T10:27:05.934Z,4.30
2023-04-25T10:29:33.902Z,5.05
2023-04-25T10:32:01.693Z,4.13
2023-04-25T10:34:43.282Z,4.05
2023-04-25T10:37:12.021Z,5.13
2023-04-25T10:39:43.063Z,4.40
2023-04-25T10:42:11.377Z,3.03
2023-04-25T10:44:40.125Z,5.80
2023-04-25T10:47:11.477Z,3.65
2023-04-25T10:49:44.551Z,4.50
2023-04-25T10:52:28.425Z,4.40
2023-04-25T10:54:57.071Z,4.13
2023-04-25T10:57:37.260Z,3.90
2023-04-25T11:00:16.242Z,4.25
2023-04-25T11:02:49.803Z,5.80
2023-04-25T11:05:50.961Z,5.80
2023-04-25T11:08:19.549Z,6.65
2023-04-25T11:10:47.055Z,7.80
2023-04-25T11:13:14.743Z,3.97
2023-04-25T11:15:42.277Z,4.03
2023-04-25T11:18:17.853Z,5.80
2023-04-25T11:20:45.968Z,4.88
2023-04-25T11:23:13.673Z,5.70
2023-04-25T11:25:46.989Z,6.13
2023-04-25T11:28:14.400Z,5.10
2023-04-25T11:30:48.677Z,6.13
2023-04-25T11:33:16.626Z,3.90
2023-04-25T11:35:44.642Z,4.60
2023-04-25T11:38:12.982Z,6.00
2023-04-25T11:40:40.727Z,4.50
2023-04-25T11:43:08.572Z,4.93
2023-04-25T11:45:38.103Z,6.63
2023-04-25T11:48:05.817Z,3.95
2023-04-25T11:50:33.950Z,6.10
2023-04-25T11:53:04.475Z,6.18
2023-04-25T11:55:32.315Z,4.47
2023-04-25T11:58:01.554Z,4.50
2023-04-25T12:00:29.413Z,5.05
2023-04-25T12:02:59.427Z,4.18
2023-04-25T12:05:32.873Z,4.32
2023-04-25T12:08:17.437Z,4.03
2023-04-25T12:10:49.710Z,4.70
2023-04-25T12:13:25.096Z,3.63
2023-04-25T12:15:56.457Z,4.03
2023-04-25T12:18:28.781Z,5.90
2023-04-25T12:20:57.840Z,5.22
2023-04-25T12:23:29.427Z,3.33
2023-04-25T12:26:00.162Z,3.65
2023-04-25T12:28:32.356Z,3.90
2023-04-25T12:31:01.990Z,3.75
2023-04-25T12:33:37.389Z,2.63
2023-04-25T12:36:09.868Z,3.50
2023-04-25T12:38:42.695Z,5.28
2023-04-25T12:41:10.717Z,4.60
2023-04-25T12:43:38.047Z,4.57
2023-04-25T12:46:05.811Z,5.13
2023-04-25T12:48:33.376Z,3.33
2023-04-25T12:51:01.874Z,3.15
2023-04-25T12:53:30.014Z,3.85
2023-04-25T12:55:57.507Z,3.60
2023-04-25T12:58:26.156Z,3.20
2023-04-25T13:00:53.788Z,3.53
2023-04-25T13:03:21.416Z,3.25
2023-04-25T13:05:49.027Z,2.90
2023-04-25T13:08:16.546Z,3.20
2023-04-25T13:10:44.160Z,4.75
2023-04-25T13:13:14.155Z,3.30
2023-04-25T13:15:41.892Z,3.97
2023-04-25T13:18:09.245Z,5.15
2023-04-25T13:20:36.794Z,4.10
2023-04-25T13:23:04.071Z,2.53
2023-04-25T13:25:34.095Z,3.37
2023-04-25T13:28:01.374Z,3.78
2023-04-25T13:30:28.980Z,2.85
2023-04-25T13:32:58.104Z,3.83
2023-04-25T13:35:25.803Z,3.60
2023-04-25T13:37:53.112Z,3.10
2023-04-25T13:40:20.496Z,4.38
2023-04-25T13:42:47.758Z,2.42
2023-04-25T13:45:15.304Z,4.93
2023-04-25T13:47:42.714Z,4.95
2023-04-25T13:50:10.799Z,3.73
2023-04-25T13:52:39.065Z,5.07
2023-04-25T13:55:08.420Z,4.32
2023-04-25T13:57:41.257Z,4.35
2023-04-25T14:00:12.466Z,6.32
2023-04-25T14:02:40.165Z,4.87
2023-04-25T14:05:08.128Z,4.05
2023-04-25T14:07:36.143Z,4.13
2023-04-25T14:10:05.202Z,4.03
2023-04-25T14:12:33.189Z,4.43
2023-04-25T14:15:00.452Z,5.87
2023-04-25T14:17:27.998Z,5.35
2023-04-25T14:19:55.784Z,4.88
2023-04-25T14:22:23.188Z,4.28
2023-04-25T14:24:50.442Z,4.57
2023-04-25T14:27:17.788Z,5.37
2023-04-25T14:29:45.107Z,5.93
2023-04-25T14:32:12.942Z,5.88
2023-04-25T14:34:40.415Z,3.50
2023-04-25T14:37:08.143Z,4.32
2023-04-25T14:39:35.466Z,1.70
2023-04-25T14:42:03.003Z,4.45
2023-04-25T14:44:30.277Z,2.67
2023-04-25T14:46:57.804Z,2.72
2023-04-25T14:49:25.220Z,2.47
2023-04-25T14:51:52.785Z,3.60
2023-04-25T14:54:20.208Z,2.95
2023-04-25T14:56:47.820Z,4.20
2023-04-25T14:59:15.167Z,3.70
2023-04-25T15:01:42.736Z,2.95
2023-04-25T15:04:10.356Z,3.90
2023-04-25T15:06:38.953Z,3.85
2023-04-25T15:09:06.364Z,4.18
2023-04-25T15:11:33.816Z,3.92
2023-04-25T15:14:01.077Z,2.60
2023-04-25T15:16:28.452Z,7.20
2023-04-25T15:18:55.895Z,3.13
2023-04-25T15:21:23.236Z,3.95
2023-04-25T15:23:51.233Z,3.33
2023-04-25T15:26:19.281Z,3.58
2023-04-25T15:28:46.538Z,3.70
2023-04-25T15:31:13.940Z,4.05
2023-04-25T15:33:41.243Z,5.15
2023-04-25T15:36:08.837Z,4.93
2023-04-25T15:38:36.402Z,3.88
2023-04-25T15:41:06.804Z,4.40
2023-04-25T15:43:38.362Z,4.55
2023-04-25T15:46:06.683Z,4.50
2023-04-25T15:48:34.841Z,4.85
2023-04-25T15:51:02.409Z,4.28
2023-04-25T15:53:29.706Z,2.83
2023-04-25T15:55:57.074Z,3.70
2023-04-25T15:58:24.907Z,3.28
2023-04-25T16:00:52.357Z,3.63
2023-04-25T16:03:19.673Z,5.00
2023-04-25T16:05:48.194Z,4.73
2023-04-25T16:08:15.596Z,4.65
2023-04-25T16:10:43.063Z,5.13
2023-04-25T16:13:10.594Z,5.18
2023-04-25T16:15:38.081Z,3.63
2023-04-25T16:18:05.725Z,4.57
2023-04-25T16:20:33.166Z,5.38
2023-04-25T16:23:01.398Z,2.78
2023-04-25T16:25:28.948Z,3.60
2023-04-25T16:27:56.510Z,3.97
2023-04-25T16:30:23.993Z,3.87
2023-04-25T16:32:51.235Z,4.88
2023-04-25T16:35:18.785Z,4.57
2023-04-25T16:37:46.269Z,8.10
2023-04-25T16:40:13.817Z,4.75
2023-04-25T16:42:41.100Z,5.03
2023-04-25T16:45:09.247Z,3.45
2023-04-25T16:47:36.815Z,3.95
2023-04-25T16:50:04.418Z,5.40
2023-04-25T16:52:31.854Z,2.38
2023-04-25T16:54:59.188Z,3.77
2023-04-25T16:57:26.484Z,5.60
2023-04-25T16:59:53.772Z,2.50
2023-04-25T17:02:21.102Z,1.95
2023-04-25T17:04:48.685Z,3.20
2023-04-25T17:07:16.801Z,2.70
2023-04-25T17:09:44.221Z,3.55
2023-04-25T17:12:11.542Z,3.88
2023-04-25T17:14:39.136Z,4.28
2023-04-25T17:17:09.641Z,3.05
2023-04-25T17:19:37.717Z,5.30
2023-04-25T17:22:05.136Z,8.02
2023-04-25T17:24:32.673Z,5.93
2023-04-25T17:26:59.925Z,5.30
2023-04-25T17:29:27.993Z,3.80
2023-04-25T17:31:57.110Z,3.03
2023-04-25T17:34:24.509Z,3.92
2023-04-25T17:36:51.926Z,4.32
2023-04-25T17:39:20.151Z,3.92
2023-04-25T17:41:47.395Z,4.38
2023-04-25T17:44:14.876Z,4.90
2023-04-25T17:46:42.216Z,5.47
2023-04-25T17:49:09.579Z,4.97
2023-04-25T17:51:37.218Z,5.20
2023-04-25T17:54:04.856Z,5.07
2023-04-25T17:56:33.829Z,4.37
2023-04-25T17:59:01.669Z,4.07
2023-04-25T18:01:29.043Z,4.80
2023-04-25T18:03:56.698Z,6.50
2023-04-25T18:06:24.083Z,4.40
2023-04-25T18:08:52.853Z,5.13
2023-04-25T18:11:20.820Z,4.20
2023-04-25T18:13:48.123Z,6.78
2023-04-25T18:16:16.059Z,5.50
2023-04-25T18:18:44.390Z,3.65
2023-04-25T18:21:11.856Z,3.80
2023-04-25T18:23:39.194Z,4.45
2023-04-25T18:26:06.502Z,3.30
2023-04-25T18:28:34.477Z,3.15
2023-04-25T18:31:02.201Z,2.28
2023-04-25T18:33:29.762Z,2.17
2023-04-25T18:35:59.836Z,2.78
2023-04-25T18:41:06.212Z,4.15
2023-04-25T18:43:44.519Z,3.53
2023-04-25T18:46:12.063Z,3.90
2023-04-25T18:48:39.428Z,4.05
2023-04-25T18:51:06.741Z,3.10
2023-04-25T18:53:34.004Z,4.03
2023-04-25T18:56:01.323Z,2.13
2023-04-25T18:58:28.657Z,2.63
2023-04-25T19:00:56.402Z,4.05
2023-04-25T19:03:23.831Z,3.10
2023-04-25T19:05:51.791Z,3.45
2023-04-25T19:08:19.097Z,5.47
2023-04-25T19:10:46.926Z,2.23
2023-04-25T19:13:14.304Z,3.13
2023-04-25T19:15:41.562Z,3.17
2023-04-25T19:18:09.073Z,3.03
2023-04-25T19:20:36.427Z,3.55
2023-04-25T19:23:05.149Z,3.13
2023-04-25T19:25:32.498Z,3.40
2023-04-25T19:28:00.725Z,5.47
2023-04-25T19:30:31.785Z,3.80
2023-04-25T19:32:59.270Z,2.85
2023-04-25T19:35:30.808Z,3.10
2023-04-25T19:37:58.601Z,5.28
2023-04-25T19:40:25.911Z,3.55
2023-04-25T19:42:53.213Z,2.63
2023-04-25T19:45:20.813Z,2.85
2023-04-25T19:47:49.197Z,2.87
2023-04-25T19:50:17.940Z,2.40
2023-04-25T19:52:45.407Z,3.78
2023-04-25T19:55:12.674Z,2.30
2023-04-25T19:57:40.151Z,3.35
2023-04-25T20:00:10.827Z,1.93
2023-04-25T20:02:41.530Z,4.60
2023-04-25T20:05:09.615Z,5.00
2023-04-25T20:07:37.017Z,4.50
2023-04-25T20:10:06.925Z,3.30
2023-04-25T20:12:37.285Z,4.77
2023-04-25T20:15:05.066Z,5.40
2023-04-25T20:17:32.296Z,3.83
2023-04-25T20:19:59.771Z,4.38
2023-04-25T20:22:28.706Z,2.67
2023-04-25T20:24:55.974Z,3.43
2023-04-25T20:27:23.155Z,3.88
2023-04-25T20:29:50.414Z,3.47
2023-04-25T20:32:17.636Z,3.22
2023-04-25T20:34:44.954Z,2.88
2023-04-25T20:37:12.360Z,3.17
2023-04-25T20:39:39.726Z,4.30
2023-04-25T20:42:06.956Z,4.47
2023-04-25T20:44:34.257Z,2.65
2023-04-25T20:47:01.621Z,3.33
2023-04-25T20:49:28.947Z,2.90
2023-04-25T20:51:56.170Z,5.63
2023-04-25T20:54:24.242Z,4.35
2023-04-25T20:56:52.472Z,3.30
2023-04-25T20:59:20.063Z,3.63
2023-04-25T21:01:47.310Z,4.07
2023-04-25T21:04:15.513Z,2.95
2023-04-25T21:06:43.020Z,3.15
2023-04-25T21:09:10.310Z,2.20
2023-04-25T21:11:38.467Z,2.33
2023-04-25T21:14:05.791Z,2.53
2023-04-25T21:16:35.366Z,3.35
2023-04-25T21:19:02.833Z,3.40
2023-04-25T21:21:30.153Z,3.17
2023-04-25T21:23:57.757Z,2.75
2023-04-25T21:26:25.928Z,2.40
2023-04-25T21:28:54.248Z,3.47
2023-04-25T21:31:22.368Z,2.58
2023-04-25T21:33:49.911Z,2.03
2023-04-25T21:36:17.712Z,2.70
2023-04-25T21:38:45.020Z,2.80
2023-04-25T21:41:12.228Z,2.72
2023-04-25T21:43:39.499Z,2.15
2023-04-25T21:46:22.312Z,1.90
2023-04-25T21:48:51.557Z,3.72
2023-04-25T21:51:19.597Z,2.70
2023-04-25T21:53:46.898Z,2.13
2023-04-25T21:56:14.127Z,2.28
2023-04-25T21:58:41.498Z,1.27
2023-04-25T22:01:09.947Z,2.25
2023-04-25T22:03:37.378Z,2.17
2023-04-25T22:06:04.759Z,1.83
2023-04-25T22:08:32.193Z,2.92
2023-04-25T22:11:00.111Z,3.00
2023-04-25T22:13:29.128Z,2.20
2023-04-25T22:15:56.398Z,1.67
2023-04-25T22:18:23.764Z,2.67
2023-04-25T22:20:50.960Z,3.33
2023-04-25T22:23:18.346Z,2.58
2023-04-25T22:25:46.385Z,2.10
2023-04-25T22:28:14.816Z,2.37
2023-04-25T22:30:42.342Z,3.80
2023-04-25T22:33:09.683Z,2.78
2023-04-25T22:35:37.112Z,3.63
2023-04-25T22:38:04.534Z,4.72
2023-04-25T22:40:31.826Z,3.13
2023-04-25T22:42:59.088Z,3.00
2023-04-25T22:45:26.436Z,3.40
2023-04-25T22:47:54.402Z,2.85
2023-04-25T22:50:21.752Z,3.10
2023-04-25T22:52:49.071Z,2.90
2023-04-25T22:55:16.385Z,3.28
2023-04-25T22:57:43.855Z,2.85
2023-04-25T23:00:20.310Z,4.68
2023-04-25T23:02:48.132Z,3.22
2023-04-25T23:05:15.749Z,3.70
2023-04-25T23:07:44.737Z,5.00
2023-04-25T23:10:13.241Z,4.25
2023-04-25T23:12:41.004Z,5.50
2023-04-25T23:15:08.778Z,4.28
2023-04-25T23:17:37.062Z,6.17
2023-04-25T23:20:07.758Z,4.07
2023-04-25T23:22:35.232Z,4.63
2023-04-25T23:25:02.500Z,4.13
2023-04-25T23:27:29.720Z,5.03
2023-04-25T23:29:58.086Z,5.07
2023-04-25T23:32:26.516Z,4.93
2023-04-25T23:34:53.821Z,5.82
2023-04-25T23:37:21.408Z,6.13
2023-04-25T23:39:51.872Z,4.68
2023-04-25T23:42:20.034Z,4.33
2023-04-25T23:44:47.227Z,5.60
2023-04-25T23:47:17.560Z,6.50
2023-04-25T23:49:45.883Z,4.57
2023-04-25T23:52:13.213Z,5.70
2023-04-25T23:54:40.539Z,5.77
2023-04-25T23:57:07.837Z,4.72
2023-04-25T23:59:35.193Z,6.38
